createdAt,value
2018-11-06T00:03:52.774Z,32.90
2018-11-06T00:08:56.405Z,38.50
2018-11-06T00:14:00.007Z,34.60
2018-11-06T00:19:03.548Z,37.80
2018-11-06T00:24:07.411Z,37.13
2018-11-06T00:29:12.867Z,31.20
2018-11-06T00:34:16.845Z,31.33
2018-11-06T00:39:20.575Z,31.73
2018-11-06T00:44:24.142Z,30.17
2018-11-06T00:49:27.657Z,29.93
2018-11-06T00:54:31.300Z,33.07
2018-11-06T00:59:34.939Z,30.87
2018-11-06T01:04:38.657Z,31.07
2018-11-06T01:09:42.144Z,29.73
2018-11-06T01:14:45.795Z,30.23
2018-11-06T01:19:49.373Z,31.13
2018-11-06T01:24:52.977Z,27.97
2018-11-06T01:29:56.513Z,31.20
2018-11-06T01:35:00.156Z,28.97
2018-11-06T01:40:03.731Z,30.33
2018-11-06T01:45:09.703Z,29.40
2018-11-06T01:50:15.273Z,30.70
2018-11-06T01:55:18.854Z,28.90
2018-11-06T02:00:33.267Z,26.27
2018-11-06T02:05:37.151Z,26.57
2018-11-06T02:10:40.725Z,28.27
2018-11-06T02:15:44.344Z,26.43
2018-11-06T02:20:50.655Z,31.67
2018-11-06T02:25:54.362Z,28.50
2018-11-06T02:30:57.921Z,27.00
2018-11-06T02:36:01.446Z,25.83
2018-11-06T02:41:05.543Z,27.10
2018-11-06T02:46:09.280Z,26.87
2018-11-06T02:51:12.971Z,25.67
2018-11-06T02:56:17.012Z,26.10
2018-11-06T03:01:20.564Z,24.33
2018-11-06T03:06:24.103Z,29.90
2018-11-06T03:11:27.638Z,30.73
2018-11-06T03:16:31.213Z,31.03
2018-11-06T03:21:35.206Z,38.27
2018-11-06T03:26:38.754Z,45.67
2018-11-06T03:31:42.370Z,46.07
2018-11-06T03:36:45.917Z,41.30
2018-11-06T03:41:49.680Z,43.50
2018-11-06T03:46:53.258Z,40.60
2018-11-06T03:51:56.882Z,37.87
2018-11-06T03:57:09.141Z,34.50
2018-11-06T04:02:12.702Z,36.23
2018-11-06T04:07:16.315Z,31.27
2018-11-06T04:12:19.937Z,34.23
2018-11-06T04:17:23.373Z,35.50
2018-11-06T04:22:26.988Z,34.93
2018-11-06T04:27:30.508Z,36.63
2018-11-06T04:32:34.120Z,33.50
2018-11-06T04:37:38.558Z,36.63
2018-11-06T04:42:42.463Z,37.77
2018-11-06T04:47:49.430Z,36.50
2018-11-06T04:52:53.097Z,36.00
2018-11-06T04:57:56.701Z,39.10
2018-11-06T05:03:00.300Z,34.97
2018-11-06T05:08:03.759Z,39.77
2018-11-06T05:13:07.401Z,37.70
2018-11-06T05:18:10.911Z,32.37
2018-11-06T05:23:14.509Z,38.57
2018-11-06T05:28:18.127Z,33.00
2018-11-06T05:33:30.362Z,34.03
2018-11-06T05:38:33.812Z,28.73
2018-11-06T05:43:38.383Z,26.67
2018-11-06T05:48:41.930Z,26.27
2018-11-06T05:53:45.606Z,25.97
2018-11-06T05:58:49.453Z,27.17
2018-11-06T06:03:53.568Z,31.35
2018-11-06T06:08:57.196Z,24.93
2018-11-06T06:14:00.903Z,26.97
2018-11-06T06:19:07.038Z,23.43
2018-11-06T06:24:10.716Z,25.63
2018-11-06T06:29:14.405Z,24.13
2018-11-06T06:34:18.430Z,23.97
2018-11-06T06:39:25.433Z,30.93
2018-11-06T06:44:29.122Z,28.83
2018-11-06T06:49:32.727Z,30.17
2018-11-06T06:54:36.833Z,29.63
2018-11-06T06:59:40.221Z,26.03
2018-11-06T07:04:43.687Z,23.53
2018-11-06T07:09:47.237Z,25.77
2018-11-06T07:14:50.765Z,24.53
2018-11-06T07:19:54.374Z,25.37
2018-11-06T07:24:57.824Z,24.03
2018-11-06T07:30:01.621Z,26.67
2018-11-06T07:35:06.476Z,24.90
2018-11-06T07:40:11.789Z,25.53
2018-11-06T07:45:16.867Z,28.87
2018-11-06T07:50:20.639Z,29.97
2018-11-06T07:55:24.161Z,33.30
2018-11-06T08:00:27.819Z,52.53
2018-11-06T08:05:31.413Z,43.50
2018-11-06T08:10:35.086Z,30.83
2018-11-06T08:15:38.796Z,27.23
2018-11-06T08:20:42.480Z,32.17
2018-11-06T08:25:45.919Z,24.23
2018-11-06T08:30:49.677Z,32.47
2018-11-06T08:35:53.005Z,24.00
2018-11-06T08:40:56.639Z,25.73
2018-11-06T08:46:00.133Z,42.53
2018-11-06T08:51:05.043Z,31.80
2018-11-06T08:56:08.726Z,28.83
2018-11-06T09:01:12.737Z,28.33
2018-11-06T09:06:16.248Z,45.87
2018-11-06T09:11:19.809Z,24.73
2018-11-06T09:16:23.413Z,48.63
2018-11-06T09:21:27.137Z,21.67
2018-11-06T09:26:30.728Z,20.47
2018-11-06T09:31:34.843Z,18.97
2018-11-06T09:36:39.049Z,18.00
2018-11-06T09:41:42.759Z,18.30
2018-11-06T09:46:46.287Z,20.90
2018-11-06T09:51:49.962Z,20.47
2018-11-06T09:56:53.546Z,23.67
2018-11-06T10:01:57.222Z,17.00
2018-11-06T10:07:01.151Z,18.87
2018-11-06T10:12:04.355Z,16.67
2018-11-06T10:17:07.998Z,17.37
2018-11-06T10:22:11.742Z,15.23
2018-11-06T10:27:15.334Z,15.47
2018-11-06T10:32:18.942Z,14.70
2018-11-06T10:37:22.543Z,14.93
2018-11-06T10:42:26.081Z,13.60
2018-11-06T10:47:29.684Z,12.57
2018-11-06T10:52:33.566Z,11.50
2018-11-06T10:57:38.828Z,11.23
2018-11-06T11:02:47.838Z,11.53
2018-11-06T11:07:51.548Z,11.50
2018-11-06T11:12:55.348Z,12.13
2018-11-06T11:17:59.147Z,12.07
2018-11-06T11:23:02.813Z,12.13
2018-11-06T11:28:06.397Z,11.27
2018-11-06T11:33:09.941Z,12.20
2018-11-06T11:38:13.520Z,9.80
2018-11-06T11:43:17.127Z,9.37
2018-11-06T11:48:20.654Z,9.57
2018-11-06T11:53:24.294Z,9.07
2018-11-06T11:58:27.866Z,9.30
2018-11-06T12:03:31.525Z,9.07
2018-11-06T12:08:35.087Z,9.57
2018-11-06T12:13:38.756Z,9.20
2018-11-06T12:18:42.450Z,8.13
2018-11-06T12:23:46.066Z,7.97
2018-11-06T12:28:49.656Z,7.97
2018-11-06T12:33:53.249Z,8.43
2018-11-06T12:38:56.805Z,7.97
2018-11-06T12:44:00.444Z,6.97
2018-11-06T12:49:04.070Z,6.63
2018-11-06T12:54:07.859Z,7.47
2018-11-06T12:59:11.407Z,6.70
2018-11-06T13:04:15.094Z,5.73
2018-11-06T13:09:18.924Z,6.30
2018-11-06T13:14:22.497Z,6.60
2018-11-06T13:19:26.069Z,6.37
2018-11-06T13:24:29.617Z,6.37
2018-11-06T13:29:33.205Z,5.93
2018-11-06T13:34:36.915Z,5.97
2018-11-06T13:39:40.389Z,5.37
2018-11-06T13:44:44.302Z,5.67
2018-11-06T13:49:47.481Z,5.23
2018-11-06T13:54:51.078Z,5.40
2018-11-06T13:59:54.635Z,7.23
2018-11-06T14:04:58.254Z,8.13
2018-11-06T14:10:02.029Z,9.50
2018-11-06T14:15:05.776Z,9.40
2018-11-06T14:20:11.591Z,11.07
2018-11-06T14:25:15.219Z,11.00
2018-11-06T14:30:25.003Z,12.40
2018-11-06T14:35:28.595Z,12.57
2018-11-06T14:40:32.447Z,12.53
2018-11-06T14:45:36.106Z,13.30
2018-11-06T14:50:39.566Z,14.43
2018-11-06T14:55:43.199Z,13.83
2018-11-06T15:00:46.812Z,15.00
2018-11-06T15:05:50.657Z,22.13
2018-11-06T15:10:54.207Z,15.87
2018-11-06T15:15:57.826Z,15.80
2018-11-06T15:21:01.451Z,15.97
2018-11-06T15:26:04.890Z,18.63
2018-11-06T15:31:08.467Z,26.13
2018-11-06T15:36:12.226Z,22.27
2018-11-06T15:41:15.928Z,29.33
2018-11-06T15:46:19.447Z,26.90
2018-11-06T15:51:23.151Z,21.23
2018-11-06T15:56:26.703Z,23.25
2018-11-06T16:01:30.336Z,23.47
2018-11-06T16:06:33.915Z,20.80
2018-11-06T16:11:37.386Z,18.50
2018-11-06T16:16:40.991Z,18.70
2018-11-06T16:21:44.682Z,19.43
2018-11-06T16:26:48.293Z,23.43
2018-11-06T16:31:51.886Z,33.03
2018-11-06T16:36:55.561Z,26.80
2018-11-06T16:41:59.061Z,23.00
2018-11-06T16:47:02.641Z,22.37
2018-11-06T16:52:06.360Z,22.50
2018-11-06T16:57:10.015Z,17.73
2018-11-06T17:02:13.653Z,19.27
2018-11-06T17:07:17.177Z,17.40
2018-11-06T17:12:20.754Z,15.50
2018-11-06T17:17:24.259Z,16.47
2018-11-06T17:22:27.867Z,17.33
2018-11-06T17:27:31.479Z,24.70
2018-11-06T17:32:35.186Z,27.63
2018-11-06T17:37:39.421Z,46.97
2018-11-06T17:42:43.610Z,37.03
2018-11-06T17:47:47.206Z,34.80
2018-11-06T17:52:50.802Z,34.67
2018-11-06T17:57:54.394Z,30.20
2018-11-06T18:02:58.399Z,20.10
2018-11-06T18:08:01.984Z,17.40
2018-11-06T18:13:06.011Z,16.53
2018-11-06T18:18:09.823Z,15.67
2018-11-06T18:23:13.804Z,17.27
2018-11-06T18:28:17.318Z,17.23
2018-11-06T18:33:20.924Z,17.77
2018-11-06T18:38:24.685Z,19.87
2018-11-06T18:43:28.177Z,17.87
2018-11-06T18:48:31.855Z,17.57
2018-11-06T18:53:35.507Z,16.47
2018-11-06T18:58:39.170Z,17.37
2018-11-06T19:03:49.822Z,17.10
2018-11-06T19:08:53.533Z,20.10
2018-11-06T19:13:57.510Z,19.87
2018-11-06T19:19:01.219Z,17.30
2018-11-06T19:24:08.940Z,19.80
2018-11-06T19:29:12.511Z,17.23
2018-11-06T19:34:23.966Z,23.17
2018-11-06T19:39:27.651Z,17.53
2018-11-06T19:44:31.290Z,21.73
2018-11-06T19:49:39.894Z,19.03
2018-11-06T19:54:43.591Z,19.27
2018-11-06T19:59:47.128Z,19.80
2018-11-06T20:04:50.989Z,18.30
2018-11-06T20:09:54.577Z,20.63
2018-11-06T20:14:58.228Z,21.17
2018-11-06T20:20:02.090Z,21.20
2018-11-06T20:25:05.855Z,18.70
2018-11-06T20:30:15.123Z,20.20
2018-11-06T20:35:21.107Z,19.53
2018-11-06T20:40:26.387Z,20.73
2018-11-06T20:45:30.140Z,32.23
2018-11-06T20:50:33.645Z,26.87
2018-11-06T20:55:37.354Z,35.63
2018-11-06T21:00:41.005Z,30.80
2018-11-06T21:05:44.710Z,28.90
2018-11-06T21:10:49.021Z,28.17
2018-11-06T21:15:53.065Z,28.30
2018-11-06T21:20:58.008Z,38.23
2018-11-06T21:26:03.439Z,35.33
2018-11-06T21:31:08.163Z,27.70
2018-11-06T21:36:11.858Z,27.63
2018-11-06T21:41:15.577Z,24.97
2018-11-06T21:46:19.397Z,21.87
2018-11-06T21:51:23.038Z,24.40
2018-11-06T21:56:26.772Z,23.03
2018-11-06T22:01:30.439Z,22.53
2018-11-06T22:06:35.057Z,22.57
2018-11-06T22:11:38.561Z,21.33
2018-11-06T22:16:42.325Z,23.43
2018-11-06T22:21:46.038Z,23.60
2018-11-06T22:26:49.713Z,22.10
2018-11-06T22:31:53.740Z,23.20
2018-11-06T22:36:57.435Z,24.47
2018-11-06T22:42:01.055Z,24.17
2018-11-06T22:47:05.153Z,22.63
2018-11-06T22:52:08.827Z,21.87
2018-11-06T22:57:12.591Z,21.47
2018-11-06T23:02:16.290Z,40.40
2018-11-06T23:07:25.197Z,39.97
2018-11-06T23:12:31.880Z,36.87
2018-11-06T23:17:36.897Z,35.93
2018-11-06T23:22:41.986Z,27.90
2018-11-06T23:27:47.353Z,26.13
2018-11-06T23:32:53.193Z,24.67
2018-11-06T23:37:58.626Z,22.03
2018-11-06T23:43:03.634Z,22.73
2018-11-06T23:48:08.704Z,22.10
2018-11-06T23:53:13.724Z,24.77
2018-11-06T23:58:17.392Z,19.63
